Terminal Aerodrome Forecast
Issued by NWS Anchorage, AK

Home | Current Version | Previous Version | Text Only | Print | Product List | Glossary On
Versions: 1 2 3 4 5 6 7 8 9 10 11 12 13 14 15 16 17 18 19 20 21 22 23 24 25 26 27 28 29 30 31 32 33 34 35 36
792
FTAK31 PANC 071120
TAFANC
TAF
PANC 071120Z 0712/0818 36007KT P6SM VCSH SCT060 BKN080
      TEMPO 0712/0716 36010KT P6SM -SHSN BKN060
     FM080200 36008KT P6SM BKN080=

USA.gov is the U.S. government's official web portal to all federal, state and local government web resources and services.